KCMD

Cullman Regional-Folsom Field Airport

Cullman, Alabama, USA
METAR KCMD 170555Z AUTO 00000KT 10SM CLR 02/M03 A3025 RMK AO2 T00211030 10053 21005 401021069
Observed Flight Rules
Dec-17 @ 05:55 UTC (20 minutes ago) Visual Flight Rules
Wind Visibility Clouds
Calm 10 miles
  • Clear skies
Temperatures Readings
Current 2°C / 36°F
Dewpoint -3°C / 27°F
Humidity 70%
Altimeter 30.25" Hg
Pressure 1024 hPa
Elevation 294
METAR KCMD 170555Z AUTO 00000KT 10SM CLR 02/M03 A3025 RMK AO2 T00211030 10053 21005 401021069
Observed Flight Rules
Dec-17 @ 05:55 UTC
(20 minutes ago)
VFR
Wind Visibility
Calm 10 miles
Clouds
  • Clear skies
Temperature Dewpoint
2°C / 36°F -3°C / 27°F
Humidity Altimeter Pressure
70% 30.25" Hg 1024 hPa